createdAt,value
2019-03-01T00:00:33.701Z,53.80
2019-03-01T00:03:06.551Z,54.90
2019-03-01T00:06:03.989Z,54.70
2019-03-01T00:08:51.880Z,54.80
2019-03-01T00:11:32.079Z,55.00
2019-03-01T00:14:27.971Z,54.90
2019-03-01T00:17:32.532Z,55.30
2019-03-01T00:20:52.601Z,54.20
2019-03-01T00:23:56.561Z,55.70
2019-03-01T00:27:02.489Z,56.50
2019-03-01T00:30:22.587Z,56.60
2019-03-01T00:33:33.850Z,57.60
2019-03-01T00:36:49.865Z,57.90
2019-03-01T00:40:00.283Z,58.40
2019-03-01T00:43:05.957Z,58.80
2019-03-01T00:45:36.485Z,59.20
2019-03-01T00:48:07.061Z,59.60
2019-03-01T00:50:37.335Z,59.70
2019-03-01T00:53:09.315Z,59.80
2019-03-01T00:55:39.635Z,59.80
2019-03-01T00:58:09.984Z,60.60
2019-03-01T01:00:44.070Z,59.90
2019-03-01T01:03:14.423Z,60.20
2019-03-01T01:05:45.029Z,58.70
2019-03-01T01:08:17.017Z,60.20
2019-03-01T01:10:48.121Z,60.20
2019-03-01T01:13:18.975Z,60.20
2019-03-01T01:15:49.339Z,60.30
2019-03-01T01:18:20.573Z,59.90
2019-03-01T01:20:51.086Z,59.90
2019-03-01T01:23:21.629Z,60.10
2019-03-01T01:25:51.953Z,60.10
2019-03-01T01:28:23.242Z,60.00
2019-03-01T01:30:53.625Z,60.10
2019-03-01T01:33:23.898Z,59.90
2019-03-01T01:35:54.237Z,59.50
2019-03-01T01:38:25.210Z,59.80
2019-03-01T01:40:55.549Z,59.80
2019-03-01T01:43:26.384Z,59.40
2019-03-01T01:45:56.711Z,59.80
2019-03-01T01:48:27.480Z,59.70
2019-03-01T01:50:57.917Z,59.60
2019-03-01T01:53:29.914Z,59.50
2019-03-01T01:56:00.595Z,59.40
2019-03-01T01:58:31.142Z,59.20
2019-03-01T02:01:01.546Z,59.20
2019-03-01T02:03:32.027Z,59.20
2019-03-01T02:06:02.378Z,58.70
2019-03-01T02:08:32.935Z,59.00
2019-03-01T02:11:03.438Z,58.70
2019-03-01T02:13:34.052Z,59.00
2019-03-01T02:16:09.734Z,59.00
2019-03-01T02:18:42.533Z,58.60
2019-03-01T02:21:12.942Z,58.70
2019-03-01T02:23:43.689Z,58.70
2019-03-01T02:26:13.923Z,58.60
2019-03-01T02:28:44.422Z,58.60
2019-03-01T02:31:15.491Z,58.60
2019-03-01T02:33:47.054Z,58.30
2019-03-01T02:36:17.436Z,58.60
2019-03-01T02:38:48.366Z,58.40
2019-03-01T02:41:18.640Z,58.20
2019-03-01T02:43:49.538Z,58.50
2019-03-01T02:46:19.920Z,58.40
2019-03-01T02:48:50.523Z,58.30
2019-03-01T02:51:20.903Z,58.20
2019-03-01T02:53:51.317Z,58.50
2019-03-01T02:56:21.795Z,58.20
2019-03-01T02:58:52.622Z,58.10
2019-03-01T03:01:22.968Z,58.10
2019-03-01T03:03:53.227Z,58.40
2019-03-01T03:06:42.690Z,57.90
2019-03-01T03:09:13.533Z,57.90
2019-03-01T03:11:45.400Z,58.20
2019-03-01T03:14:16.055Z,58.10
2019-03-01T03:16:46.507Z,58.70
2019-03-01T03:19:17.148Z,58.20
2019-03-01T03:21:47.521Z,58.20
2019-03-01T03:24:18.089Z,58.20
2019-03-01T03:26:49.874Z,58.10
2019-03-01T03:29:20.531Z,58.10
2019-03-01T03:31:50.856Z,58.10
2019-03-01T03:34:22.511Z,58.10
2019-03-01T03:36:53.307Z,58.00
2019-03-01T03:39:26.200Z,57.80
2019-03-01T03:41:56.451Z,57.90
2019-03-01T03:44:28.720Z,57.90
2019-03-01T03:46:59.048Z,57.90
2019-03-01T03:49:29.604Z,58.00
2019-03-01T03:51:59.891Z,58.40
2019-03-01T03:54:30.321Z,58.60
2019-03-01T03:57:00.666Z,59.30
2019-03-01T03:59:32.000Z,60.00
2019-03-01T04:02:02.345Z,60.40
2019-03-01T04:04:32.844Z,60.10
2019-03-01T04:07:03.178Z,61.70
2019-03-01T04:09:33.805Z,62.90
2019-03-01T04:12:04.632Z,63.40
2019-03-01T04:14:34.965Z,64.50
2019-03-01T04:17:08.967Z,64.90
2019-03-01T04:19:49.818Z,64.40
2019-03-01T04:22:20.188Z,64.40
2019-03-01T04:24:50.607Z,64.10
2019-03-01T04:27:21.340Z,64.50
2019-03-01T04:29:51.909Z,64.70
2019-03-01T04:32:22.809Z,65.10
2019-03-01T04:34:53.112Z,63.90
2019-03-01T04:37:23.970Z,64.20
2019-03-01T04:39:54.364Z,64.20
2019-03-01T04:42:24.777Z,63.90
2019-03-01T04:44:55.258Z,64.70
2019-03-01T04:47:25.688Z,64.80
2019-03-01T04:49:56.402Z,64.50
2019-03-01T04:52:34.341Z,64.40
2019-03-01T04:55:05.504Z,63.90
2019-03-01T04:57:36.136Z,64.00
2019-03-01T05:00:08.553Z,64.20
2019-03-01T05:02:39.206Z,63.80
2019-03-01T05:05:10.973Z,63.60
2019-03-01T05:07:42.899Z,64.40
2019-03-01T05:10:13.258Z,63.80
2019-03-01T05:12:44.368Z,63.30
2019-03-01T05:15:16.487Z,64.90
2019-03-01T05:17:47.123Z,62.90
2019-03-01T05:20:17.503Z,62.70
2019-03-01T05:25:17.846Z,62.90
2019-03-01T05:27:48.389Z,62.70
2019-03-01T05:30:19.149Z,62.20
2019-03-01T05:32:50.953Z,62.20
2019-03-01T05:35:21.638Z,62.00
2019-03-01T05:37:58.808Z,61.90
2019-03-01T05:42:59.286Z,61.50
2019-03-01T05:45:29.670Z,61.60
2019-03-01T05:48:00.343Z,61.60
2019-03-01T05:50:30.827Z,61.30
2019-03-01T05:53:03.265Z,61.90
2019-03-01T05:55:34.338Z,61.10
2019-03-01T05:58:27.630Z,60.80
2019-03-01T06:01:02.731Z,61.10
2019-03-01T06:04:01.943Z,61.10
2019-03-01T06:07:11.800Z,61.60
2019-03-01T06:10:16.571Z,61.10
2019-03-01T06:13:03.889Z,61.10
2019-03-01T06:15:51.765Z,61.50
2019-03-01T06:18:58.665Z,61.20
2019-03-01T06:24:37.623Z,61.70
2019-03-01T06:27:33.339Z,60.60
2019-03-01T06:30:26.552Z,61.20
2019-03-01T06:33:30.232Z,60.90
2019-03-01T06:36:34.269Z,61.30
2019-03-01T06:39:46.760Z,60.80
2019-03-01T06:43:05.591Z,61.80
2019-03-01T06:46:27.643Z,60.90
2019-03-01T06:49:08.028Z,60.50
2019-03-01T06:51:39.057Z,60.50
2019-03-01T06:54:09.505Z,60.90
2019-03-01T06:56:40.542Z,60.60
2019-03-01T06:59:11.009Z,60.50
2019-03-01T07:01:43.449Z,60.90
2019-03-01T07:04:21.303Z,60.40
2019-03-01T07:06:53.905Z,60.20
2019-03-01T07:09:24.483Z,60.90
2019-03-01T07:11:59.508Z,62.20
2019-03-01T07:14:30.495Z,60.50
2019-03-01T07:17:01.736Z,60.20
2019-03-01T07:19:32.244Z,60.70
2019-03-01T07:22:05.105Z,61.40
2019-03-01T07:27:12.270Z,61.60
2019-03-01T07:29:42.686Z,62.50
2019-03-01T07:32:15.040Z,65.70
2019-03-01T07:34:45.624Z,65.10
2019-03-01T07:37:16.755Z,65.50
2019-03-01T07:39:47.297Z,67.20
2019-03-01T07:42:21.168Z,67.70
2019-03-01T07:44:53.375Z,69.80
2019-03-01T07:47:23.884Z,71.30
2019-03-01T07:49:57.054Z,71.70
2019-03-01T07:52:27.690Z,73.70
2019-03-01T07:54:59.231Z,74.80
2019-03-01T07:57:31.633Z,74.90
2019-03-01T08:00:05.023Z,76.50
2019-03-01T08:02:39.832Z,77.40
2019-03-01T08:05:11.314Z,78.60
2019-03-01T08:10:12.978Z,79.60
2019-03-01T08:17:46.617Z,81.70
2019-03-01T08:20:17.707Z,81.50
2019-03-01T08:22:49.801Z,81.10
2019-03-01T08:25:23.625Z,81.60
2019-03-01T08:27:53.390Z,82.90
2019-03-01T08:30:24.947Z,82.70
2019-03-01T08:32:56.277Z,83.80
2019-03-01T08:37:59.329Z,83.80
2019-03-01T08:40:31.133Z,83.80
2019-03-01T08:43:11.787Z,84.10
2019-03-01T08:48:10.721Z,84.40
2019-03-01T08:50:41.607Z,84.50
2019-03-01T08:53:15.259Z,84.70
2019-03-01T08:55:46.661Z,84.70
2019-03-01T08:58:17.086Z,84.40
2019-03-01T09:03:25.858Z,85.10
2019-03-01T09:05:57.621Z,85.40
2019-03-01T09:08:29.097Z,85.90
2019-03-01T09:10:59.986Z,86.30
2019-03-01T09:13:32.806Z,86.60
2019-03-01T09:16:03.396Z,87.60
2019-03-01T09:18:35.925Z,87.70
2019-03-01T09:21:12.384Z,87.90
2019-03-01T09:23:40.733Z,87.10
2019-03-01T09:26:16.725Z,87.40
2019-03-01T09:31:18.060Z,87.60
2019-03-01T09:33:48.506Z,88.10
2019-03-01T09:36:24.446Z,88.30
2019-03-01T09:38:59.630Z,88.50
2019-03-01T09:41:36.589Z,88.10
2019-03-01T09:44:11.589Z,88.20
2019-03-01T09:49:16.163Z,87.50
2019-03-01T09:51:49.999Z,87.70
2019-03-01T09:54:21.430Z,87.70
2019-03-01T09:59:25.923Z,84.80
2019-03-01T10:02:02.625Z,85.20
2019-03-01T10:04:33.612Z,86.10
2019-03-01T10:07:09.944Z,85.00
2019-03-01T10:12:19.219Z,86.20
2019-03-01T10:14:54.908Z,85.50
2019-03-01T10:17:29.056Z,85.00
2019-03-01T10:20:01.928Z,85.40
2019-03-01T10:22:44.535Z,86.90
2019-03-01T10:25:12.144Z,84.70
2019-03-01T10:27:45.597Z,85.80
2019-03-01T10:30:18.694Z,83.90
2019-03-01T10:33:06.548Z,82.60
2019-03-01T10:35:37.878Z,83.00
2019-03-01T10:38:13.229Z,82.10
2019-03-01T10:40:46.409Z,83.60
2019-03-01T10:43:17.642Z,81.00
2019-03-01T10:45:50.528Z,81.40
2019-03-01T10:50:56.321Z,82.60
2019-03-01T10:53:29.189Z,81.20
2019-03-01T10:56:11.412Z,81.90
2019-03-01T10:58:47.128Z,81.40
2019-03-01T11:01:18.060Z,81.00
2019-03-01T11:03:49.992Z,80.60
2019-03-01T11:06:22.279Z,80.30
2019-03-01T11:08:53.068Z,80.30
2019-03-01T11:11:25.096Z,80.20
2019-03-01T11:13:56.923Z,80.70
2019-03-01T11:16:27.723Z,80.60
2019-03-01T11:18:58.835Z,79.90
2019-03-01T11:21:30.872Z,80.30
2019-03-01T11:24:01.662Z,80.90
2019-03-01T11:26:33.847Z,80.30
2019-03-01T11:29:06.116Z,80.00
2019-03-01T11:31:38.186Z,79.70
2019-03-01T11:34:09.034Z,81.00
2019-03-01T11:36:40.129Z,79.50
2019-03-01T11:39:13.277Z,79.70
2019-03-01T11:41:45.719Z,79.60
2019-03-01T11:44:19.298Z,80.80
2019-03-01T11:46:54.617Z,80.90
2019-03-01T11:49:27.606Z,80.50
2019-03-01T11:54:29.343Z,81.30
2019-03-01T11:57:00.666Z,80.90
2019-03-01T11:59:35.071Z,80.50
2019-03-01T12:02:08.319Z,80.40
2019-03-01T12:04:40.789Z,80.10
2019-03-01T12:07:13.036Z,80.80
2019-03-01T12:09:47.951Z,81.20
2019-03-01T12:14:52.375Z,80.10
2019-03-01T12:17:25.550Z,77.20
2019-03-01T12:19:56.849Z,78.50
2019-03-01T12:22:28.684Z,77.80
2019-03-01T12:25:01.672Z,78.70
2019-03-01T12:27:35.103Z,78.40
2019-03-01T12:30:09.148Z,79.00
2019-03-01T12:32:45.292Z,77.10
2019-03-01T12:35:18.254Z,77.70
2019-03-01T12:37:48.830Z,78.60
2019-03-01T12:40:24.419Z,78.60
2019-03-01T12:42:55.490Z,79.00
2019-03-01T12:45:26.019Z,78.00
2019-03-01T12:50:27.655Z,76.60
2019-03-01T12:56:02.342Z,76.00
2019-03-01T12:58:39.387Z,75.00
2019-03-01T13:01:20.613Z,74.70
2019-03-01T13:04:03.914Z,75.00
2019-03-01T13:09:32.960Z,75.20
2019-03-01T13:12:07.769Z,76.30
2019-03-01T13:14:41.112Z,75.70
2019-03-01T13:17:20.432Z,76.10
2019-03-01T13:19:52.100Z,73.20
2019-03-01T13:22:27.957Z,73.60
2019-03-01T13:25:00.099Z,73.90
2019-03-01T13:27:31.393Z,73.10
2019-03-01T13:30:03.752Z,73.30
2019-03-01T13:35:12.376Z,72.50
2019-03-01T13:40:20.840Z,73.30
2019-03-01T13:42:54.669Z,72.80
2019-03-01T13:45:25.788Z,72.90
2019-03-01T13:47:57.984Z,75.00
2019-03-01T13:50:38.266Z,75.20
2019-03-01T13:53:11.742Z,74.00
2019-03-01T13:55:43.710Z,73.40
2019-03-01T13:58:16.907Z,72.10
2019-03-01T14:00:49.656Z,71.10
2019-03-01T14:03:41.926Z,71.50
2019-03-01T14:08:48.393Z,69.70
2019-03-01T14:11:23.893Z,72.30
2019-03-01T14:13:56.105Z,70.10
2019-03-01T14:16:28.154Z,70.10
2019-03-01T14:18:59.276Z,72.00
2019-03-01T14:24:05.416Z,73.20
2019-03-01T14:26:45.675Z,72.70
2019-03-01T14:29:18.187Z,73.50
2019-03-01T14:31:57.556Z,72.70
2019-03-01T14:34:30.628Z,73.60
2019-03-01T14:37:04.539Z,74.10
2019-03-01T14:39:36.046Z,74.30
2019-03-01T14:42:10.920Z,72.90
2019-03-01T14:44:42.591Z,75.10
2019-03-01T14:47:16.007Z,74.50
2019-03-01T14:50:00.908Z,74.60
2019-03-01T14:52:43.078Z,75.90
2019-03-01T14:55:19.740Z,74.70
2019-03-01T14:58:06.080Z,75.60
2019-03-01T15:00:54.803Z,74.90
2019-03-01T15:03:44.681Z,74.60
2019-03-01T15:09:40.872Z,74.70
2019-03-01T15:12:39.492Z,74.70
2019-03-01T15:15:32.235Z,74.10
2019-03-01T15:18:07.814Z,74.10
2019-03-01T15:24:00.104Z,73.80
2019-03-01T15:26:46.190Z,73.80
2019-03-01T15:35:21.617Z,75.20
2019-03-01T15:37:53.639Z,74.10
2019-03-01T15:43:50.466Z,73.70
2019-03-01T15:49:15.172Z,73.70
2019-03-01T15:54:47.580Z,73.40
2019-03-01T16:00:29.429Z,75.20
2019-03-01T16:03:04.312Z,75.20
2019-03-01T16:05:56.283Z,73.90
2019-03-01T16:08:30.271Z,74.90
2019-03-01T16:11:04.050Z,74.60
2019-03-01T16:19:50.136Z,72.50
2019-03-01T16:31:16.173Z,72.40
2019-03-01T16:33:47.298Z,72.90
2019-03-01T16:36:26.505Z,73.20
2019-03-01T16:39:01.716Z,72.70
2019-03-01T16:41:53.306Z,73.10
2019-03-01T16:44:28.850Z,73.70
2019-03-01T16:47:11.658Z,73.80
2019-03-01T16:49:46.438Z,73.70
2019-03-01T16:52:21.715Z,74.50
2019-03-01T16:55:01.387Z,74.80
2019-03-01T16:57:33.803Z,73.40
2019-03-01T17:00:18.133Z,73.70
2019-03-01T17:02:50.929Z,73.70
2019-03-01T17:05:31.743Z,73.20
2019-03-01T17:08:07.523Z,74.80
2019-03-01T17:13:34.672Z,73.10
2019-03-01T17:16:09.413Z,73.40
2019-03-01T17:18:47.897Z,73.90
2019-03-01T17:21:20.660Z,74.00
2019-03-01T17:23:56.955Z,75.30
2019-03-01T17:26:32.435Z,74.20
2019-03-01T17:29:05.384Z,73.70
2019-03-01T17:31:39.196Z,73.70
2019-03-01T17:34:15.020Z,74.90
2019-03-01T17:36:54.689Z,74.00
2019-03-01T17:39:27.749Z,75.30
2019-03-01T17:42:01.406Z,74.70
2019-03-01T17:44:33.746Z,73.80
2019-03-01T17:47:09.694Z,74.30
2019-03-01T17:49:44.309Z,73.30
2019-03-01T17:52:21.287Z,72.60
2019-03-01T17:54:57.506Z,75.50
2019-03-01T17:57:33.177Z,75.00
2019-03-01T18:00:09.619Z,74.40
2019-03-01T18:02:59.263Z,73.70
2019-03-01T18:05:54.190Z,74.10
2019-03-01T18:08:31.062Z,73.70
2019-03-01T18:11:05.427Z,75.80
2019-03-01T18:13:39.326Z,74.00
2019-03-01T18:16:24.827Z,75.00
2019-03-01T18:19:03.337Z,73.90
2019-03-01T18:21:38.113Z,73.00
2019-03-01T18:24:27.893Z,73.60
2019-03-01T18:27:01.075Z,73.60
2019-03-01T18:29:32.794Z,73.60
2019-03-01T18:32:07.016Z,73.40
2019-03-01T18:34:38.793Z,74.00
2019-03-01T18:37:19.438Z,73.80
2019-03-01T18:39:49.474Z,73.90
2019-03-01T18:42:21.957Z,74.00
2019-03-01T18:44:59.846Z,74.10
2019-03-01T18:47:35.575Z,74.10
2019-03-01T18:50:11.639Z,75.20
2019-03-01T18:55:18.463Z,74.20
2019-03-01T18:57:50.638Z,74.40
2019-03-01T19:00:26.348Z,74.30
2019-03-01T19:03:10.122Z,74.10
2019-03-01T19:05:40.079Z,74.00
2019-03-01T19:08:11.309Z,74.00
2019-03-01T19:13:24.048Z,74.30
2019-03-01T19:15:56.151Z,74.10
2019-03-01T19:18:29.353Z,75.50
2019-03-01T19:21:03.245Z,74.00
2019-03-01T19:23:37.804Z,75.70
2019-03-01T19:26:28.551Z,74.90
2019-03-01T19:29:05.327Z,74.30
2019-03-01T19:31:42.035Z,73.70
2019-03-01T19:34:16.868Z,76.20
2019-03-01T19:36:47.298Z,74.70
2019-03-01T19:39:24.372Z,73.00
2019-03-01T19:41:59.239Z,73.60
2019-03-01T19:44:31.059Z,73.30
2019-03-01T19:47:04.289Z,73.20
2019-03-01T19:49:39.249Z,72.70
2019-03-01T19:52:12.935Z,73.30
2019-03-01T19:55:04.497Z,73.10
2019-03-01T19:57:39.587Z,74.00
2019-03-01T20:00:14.929Z,73.90
2019-03-01T20:02:46.385Z,73.50
2019-03-01T20:10:29.162Z,72.10
2019-03-01T20:13:06.400Z,72.60
2019-03-01T20:15:38.344Z,71.50
2019-03-01T20:18:10.756Z,72.20
2019-03-01T20:20:43.275Z,72.10
2019-03-01T20:23:19.725Z,72.10
2019-03-01T20:37:15.284Z,72.70
2019-03-01T20:39:50.963Z,72.50
2019-03-01T20:42:24.943Z,72.40
2019-03-01T20:45:03.627Z,71.90
2019-03-01T20:50:15.698Z,72.10
2019-03-01T20:52:44.089Z,72.50
2019-03-01T20:55:16.767Z,72.50
2019-03-01T20:57:52.460Z,72.50
2019-03-01T21:00:26.232Z,73.80
2019-03-01T21:02:56.850Z,72.80
2019-03-01T21:05:29.061Z,72.90
2019-03-01T21:08:01.950Z,73.30
2019-03-01T21:10:34.031Z,73.90
2019-03-01T21:13:08.634Z,73.70
2019-03-01T21:18:39.255Z,74.30
2019-03-01T21:21:10.181Z,74.30
2019-03-01T21:23:41.475Z,75.70
2019-03-01T21:28:47.201Z,74.60
2019-03-01T21:31:26.704Z,74.30
2019-03-01T21:33:59.444Z,73.00
2019-03-01T21:36:31.274Z,74.80
2019-03-01T21:39:02.506Z,75.30
2019-03-01T21:41:35.356Z,76.30
2019-03-01T21:44:14.767Z,76.50
2019-03-01T21:47:06.975Z,76.60
2019-03-01T21:49:41.628Z,77.40
2019-03-01T21:52:15.318Z,78.30
2019-03-01T21:54:48.618Z,76.60
2019-03-01T21:57:20.364Z,77.80
2019-03-01T21:59:52.638Z,76.30
2019-03-01T22:02:26.966Z,76.30
2019-03-01T22:04:59.600Z,76.20
2019-03-01T22:07:33.573Z,76.40
2019-03-01T22:10:03.171Z,76.20
2019-03-01T22:12:36.592Z,77.20
2019-03-01T22:15:11.091Z,76.40
2019-03-01T22:17:45.345Z,76.20
2019-03-01T22:20:17.220Z,76.50
2019-03-01T22:22:55.105Z,76.40
2019-03-01T22:25:25.872Z,76.10
2019-03-01T22:28:13.585Z,76.60
2019-03-01T22:33:17.367Z,77.20
2019-03-01T22:35:48.437Z,76.60
2019-03-01T22:38:22.597Z,76.80
2019-03-01T22:40:53.906Z,76.70
2019-03-01T22:43:26.189Z,76.70
2019-03-01T22:48:27.974Z,76.70
2019-03-01T22:53:34.635Z,76.30
2019-03-01T22:56:08.635Z,76.10
2019-03-01T22:58:41.579Z,76.20
2019-03-01T23:01:17.331Z,76.80
2019-03-01T23:03:54.943Z,76.30
2019-03-01T23:06:26.860Z,76.70
2019-03-01T23:09:01.861Z,76.70
2019-03-01T23:11:34.816Z,76.00
2019-03-01T23:14:06.560Z,76.90
2019-03-01T23:16:37.584Z,76.50
2019-03-01T23:19:12.694Z,76.70
2019-03-01T23:21:42.865Z,76.00
2019-03-01T23:24:13.419Z,76.20
2019-03-01T23:29:15.687Z,76.30
2019-03-01T23:31:47.814Z,76.10
2019-03-01T23:34:18.761Z,76.30
2019-03-01T23:36:49.380Z,74.40
2019-03-01T23:41:54.286Z,76.00
2019-03-01T23:44:25.886Z,76.90
2019-03-01T23:46:59.476Z,76.10
2019-03-01T23:49:29.382Z,77.30
2019-03-01T23:52:01.249Z,77.70
2019-03-01T23:54:32.418Z,75.40
2019-03-01T23:57:05.694Z,75.50
2019-03-01T23:59:35.927Z,75.90
